Time;durP1;ratioP1;P1;durP2;ratioP2;P2;SDS_P1;SDS_P2;PMS_P1;PMS_P2;Temp;Humidity;BMP_temperature;BMP_pressure;BME280_temperature;BME280_humidity;BME280_pressure;Samples;Min_cycle;Max_cycle;Signal;HPM_P1;HPM_P2
2022/09/23 02:46:55;;;;;;;4.93;2.50;;;8.00;99.90;;;;;;5588385;23;93600;-77
2022/09/23 02:49:28;;;;;;;4.95;2.40;;;7.90;99.90;;;;;;4866159;28;91874;-75
2022/09/23 02:51:54;;;;;;;5.40;2.97;;;7.80;99.90;;;;;;4862321;28;92189;-77
2022/09/23 02:54:24;;;;;;;5.00;2.42;;;7.70;99.90;;;;;;4876395;28;92476;-74
2022/09/23 02:56:52;;;;;;;5.40;2.58;;;7.70;99.90;;;;;;4876835;28;92680;-78
2022/09/23 02:59:20;;;;;;;6.43;2.60;;;7.70;99.90;;;;;;4878076;28;91577;-77
2022/09/23 03:01:55;;;;;;;5.95;2.00;;;7.70;99.90;;;;;;4878355;28;92001;-73
2022/09/23 03:04:52;;;;;;;5.90;2.33;;;7.70;99.90;;;;;;4878115;28;92491;-75
2022/09/23 03:07:20;;;;;;;6.70;2.08;;;7.70;99.90;;;;;;4877479;28;92639;-76
2022/09/23 03:10:12;;;;;;;4.63;1.90;;;7.80;99.90;;;;;;4872715;28;91408;-75
2022/09/23 03:12:40;;;;;;;5.13;2.92;;;7.70;99.90;;;;;;4876519;28;94042;-77
2022/09/23 03:15:24;;;;;;;7.68;2.78;;;7.70;99.90;;;;;;4879340;28;91683;-74
2022/09/23 03:18:04;;;;;;;6.40;2.95;;;7.60;99.90;;;;;;4878552;28;91690;-78
2022/09/23 03:20:45;;;;;;;8.48;2.78;;;7.60;99.90;;;;;;4877765;28;91455;-78
2022/09/23 03:23:14;;;;;;;6.13;2.50;;;7.60;99.90;;;;;;4874977;28;92126;-78
2022/09/23 03:25:44;;;;;;;5.90;2.47;;;7.60;99.90;;;;;;4877966;28;91179;-76
2022/09/23 03:28:11;;;;;;;9.35;2.92;;;7.60;99.90;;;;;;4877895;28;91238;-75
2022/09/23 03:30:38;;;;;;;3.97;2.15;;;7.60;99.90;;;;;;4877572;28;91932;-76
2022/09/23 03:33:09;;;;;;;6.40;2.00;;;7.60;99.90;;;;;;4876317;28;94799;-77
2022/09/23 03:38:32;;;;;;;4.82;2.50;;;7.50;99.90;;;;;;4836786;28;91924;-76
2022/09/23 03:41:01;;;;;;;5.07;2.63;;;7.50;99.90;;;;;;4876699;28;91773;-75
2022/09/23 03:43:27;;;;;;;4.43;2.20;;;7.40;99.90;;;;;;4872995;28;91719;-73
2022/09/23 03:45:56;;;;;;;5.03;2.42;;;7.40;99.90;;;;;;4875489;28;91979;-74
2022/09/23 03:48:24;;;;;;;4.90;2.30;;;7.40;99.90;;;;;;4876250;28;91638;-78
2022/09/23 03:50:50;;;;;;;5.00;2.20;;;7.40;99.90;;;;;;4878358;28;90902;-74
2022/09/23 03:53:17;;;;;;;5.15;2.55;;;7.50;99.90;;;;;;4879289;28;91784;-77
2022/09/23 03:55:45;;;;;;;5.35;2.00;;;7.40;99.90;;;;;;4871375;28;92160;-75
2022/09/23 03:58:11;;;;;;;6.68;2.65;;;7.50;99.90;;;;;;4878280;28;92986;-74
2022/09/23 04:00:37;;;;;;;5.30;2.38;;;7.40;99.90;;;;;;4878902;28;92053;-75
2022/09/23 04:03:03;;;;;;;5.38;2.72;;;7.40;99.90;;;;;;4878389;28;92314;-77
2022/09/23 04:05:29;;;;;;;4.90;2.08;;;7.40;99.90;;;;;;4882496;28;91427;-74
2022/09/23 04:07:55;;;;;;;5.63;2.53;;;7.30;99.90;;;;;;4880849;28;91262;-75
2022/09/23 04:10:21;;;;;;;5.55;2.55;;;7.30;99.90;;;;;;4878267;28;91985;-75
2022/09/23 04:12:47;;;;;;;5.18;2.22;;;7.30;99.90;;;;;;4879306;28;92095;-74
2022/09/23 04:15:13;;;;;;;6.55;2.47;;;7.30;99.90;;;;;;4870137;28;91903;-74
2022/09/23 04:17:38;;;;;;;5.22;2.08;;;7.30;99.90;;;;;;4882780;28;91762;-76
2022/09/23 04:20:05;;;;;;;7.07;3.30;;;7.30;99.90;;;;;;4880054;28;91861;-74
2022/09/23 04:22:32;;;;;;;4.60;2.60;;;7.30;99.90;;;;;;4870069;28;93414;-80
2022/09/23 04:24:58;;;;;;;10.07;2.88;;;7.20;99.90;;;;;;4883248;28;92210;-73
2022/09/23 04:27:24;;;;;;;5.70;2.47;;;7.20;99.90;;;;;;4870528;28;91742;-76
2022/09/23 04:29:49;;;;;;;6.28;3.30;;;7.20;99.90;;;;;;4888169;28;91327;-74
2022/09/23 04:32:15;;;;;;;5.53;2.85;;;7.10;99.90;;;;;;4891900;28;92599;-74
2022/09/23 04:34:41;;;;;;;6.80;2.75;;;7.10;99.90;;;;;;4891292;28;91997;-75
2022/09/23 04:37:07;;;;;;;5.22;2.75;;;7.00;99.90;;;;;;4882677;28;91582;-76
2022/09/23 04:39:32;;;;;;;6.55;2.60;;;7.00;99.90;;;;;;4881737;28;91355;-73
2022/09/23 04:41:58;;;;;;;4.80;2.65;;;7.10;99.90;;;;;;4891383;28;92222;-73
2022/09/23 04:44:26;;;;;;;12.35;3.08;;;7.10;99.90;;;;;;4891981;28;92725;-74
2022/09/23 04:46:52;;;;;;;5.53;2.65;;;7.10;99.90;;;;;;4877532;28;92648;-74
2022/09/23 04:49:18;;;;;;;5.95;2.85;;;7.00;99.90;;;;;;4867206;28;91457;-76
2022/09/23 04:51:45;;;;;;;7.90;3.30;;;6.90;99.90;;;;;;4887338;28;92331;-74
2022/09/23 04:54:13;;;;;;;7.53;2.65;;;6.90;99.90;;;;;;4903432;28;91708;-77
2022/09/23 04:56:38;;;;;;;5.97;3.20;;;7.00;99.90;;;;;;4903148;28;91703;-74
2022/09/23 04:59:05;;;;;;;6.55;3.40;;;7.00;99.90;;;;;;4890284;28;92036;-78
2022/09/23 05:01:33;;;;;;;6.18;3.20;;;7.00;99.90;;;;;;4882833;28;91595;-79
2022/09/23 05:04:02;;;;;;;7.07;3.80;;;7.00;99.90;;;;;;4884585;28;91317;-78
2022/09/23 05:06:30;;;;;;;8.38;3.33;;;7.00;99.90;;;;;;4884499;28;91816;-77
2022/09/23 05:08:57;;;;;;;9.50;4.63;;;7.00;99.90;;;;;;4885220;28;91565;-79
2022/09/23 05:11:24;;;;;;;14.20;5.43;;;7.10;99.90;;;;;;4877736;28;92599;-74
2022/09/23 05:13:52;;;;;;;7.88;4.07;;;7.10;99.90;;;;;;4885693;28;92406;-74
2022/09/23 05:16:19;;;;;;;7.57;4.22;;;7.00;99.90;;;;;;4889444;28;91261;-75
2022/09/23 05:18:45;;;;;;;9.75;4.75;;;7.00;99.90;;;;;;4886407;28;91828;-74
2022/09/23 05:21:13;;;;;;;9.63;4.80;;;7.00;99.90;;;;;;4883488;28;91630;-76
2022/09/23 05:23:40;;;;;;;10.82;5.68;;;7.00;99.90;;;;;;4887525;28;91866;-74
2022/09/23 05:26:08;;;;;;;11.13;5.10;;;7.00;99.90;;;;;;4884380;28;91676;-74
2022/09/23 05:28:36;;;;;;;10.10;4.28;;;7.10;99.90;;;;;;4884857;28;90622;-75
2022/09/23 05:31:14;;;;;;;8.18;3.67;;;7.60;99.90;;;;;;4897716;28;92262;-79
2022/09/23 05:33:41;;;;;;;6.97;3.13;;;8.10;99.90;;;;;;4887092;28;91925;-74
2022/09/23 05:36:08;;;;;;;5.72;3.05;;;8.40;99.90;;;;;;4881493;28;92685;-74
2022/09/23 05:38:33;;;;;;;4.65;2.92;;;8.50;99.90;;;;;;4882096;28;92358;-74
2022/09/23 05:41:05;;;;;;;12.18;3.28;;;8.90;99.90;;;;;;4879384;28;92127;-74
2022/09/23 05:43:32;;;;;;;7.22;3.50;;;9.60;99.90;;;;;;4872806;28;91711;-75
2022/09/23 05:46:06;;;;;;;6.47;2.90;;;10.30;99.90;;;;;;4891562;28;91995;-75
2022/09/23 05:48:34;;;;;;;7.90;3.60;;;10.80;99.90;;;;;;4876396;28;91464;-78
2022/09/23 05:51:00;;;;;;;9.18;3.72;;;11.20;99.90;;;;;;4890035;28;91725;-78
2022/09/23 05:53:28;;;;;;;8.63;3.58;;;11.50;99.90;;;;;;4875820;28;92177;-78
2022/09/23 05:55:54;;;;;;;7.55;3.28;;;12.70;96.30;;;;;;4872576;28;92678;-79
2022/09/23 05:58:22;;;;;;;12.88;3.55;;;12.90;94.40;;;;;;4871732;28;92898;-79
2022/09/23 06:00:48;;;;;;;12.57;3.67;;;13.20;93.10;;;;;;4867478;28;94130;-82
2022/09/23 06:03:16;;;;;;;8.63;3.00;;;14.20;90.40;;;;;;4876767;28;93028;-79
2022/09/23 06:05:42;;;;;;;6.25;3.17;;;14.80;87.60;;;;;;4880226;28;91316;-76
2022/09/23 06:08:09;;;;;;;6.57;3.20;;;15.30;80.20;;;;;;4882305;28;91263;-79
2022/09/23 06:10:43;;;;;;;7.40;3.00;;;16.00;80.90;;;;;;4880636;28;92261;-76
2022/09/23 06:13:09;;;;;;;10.15;3.00;;;16.90;74.10;;;;;;4863118;28;91301;-77
2022/09/23 06:15:36;;;;;;;8.85;2.75;;;17.30;71.90;;;;;;4872100;28;91782;-76
2022/09/23 06:18:02;;;;;;;11.70;3.25;;;18.20;70.30;;;;;;4884034;28;91192;-76
2022/09/23 06:20:28;;;;;;;7.38;2.90;;;19.10;69.70;;;;;;4888164;28;91760;-79
2022/09/23 06:22:55;;;;;;;7.03;2.95;;;19.90;62.80;;;;;;4883768;28;91381;-76
2022/09/23 06:25:21;;;;;;;5.93;2.47;;;19.50;63.60;;;;;;4876600;28;92794;-76
2022/09/23 06:27:55;;;;;;;9.13;3.25;;;20.40;64.90;;;;;;4878287;28;91503;-78
2022/09/23 06:30:22;;;;;;;7.43;3.05;;;20.70;59.80;;;;;;4878014;28;92015;-76
2022/09/23 06:32:52;;;;;;;8.63;2.92;;;21.30;59.70;;;;;;4881998;28;91595;-79
2022/09/23 06:35:20;;;;;;;7.15;2.65;;;21.60;56.50;;;;;;4884092;28;91592;-79
2022/09/23 06:37:46;;;;;;;5.53;2.53;;;22.10;57.80;;;;;;4876395;28;92153;-75
2022/09/23 06:40:13;;;;;;;5.30;2.53;;;22.90;55.90;;;;;;4886191;28;91588;-75
2022/09/23 06:42:39;;;;;;;9.05;2.80;;;22.90;54.80;;;;;;4882335;28;91351;-76
2022/09/23 06:45:06;;;;;;;7.32;3.00;;;22.70;53.70;;;;;;4883185;28;93248;-77
2022/09/23 06:47:31;;;;;;;6.70;2.58;;;22.70;52.80;;;;;;4875664;28;91977;-76
2022/09/23 06:49:57;;;;;;;5.95;2.85;;;23.30;54.90;;;;;;4894056;28;92968;-77
2022/09/23 06:52:23;;;;;;;5.75;2.72;;;24.00;50.20;;;;;;4874894;28;95042;-78
2022/09/23 06:54:49;;;;;;;8.52;2.88;;;24.00;52.70;;;;;;4882838;28;92241;-76
2022/09/23 06:57:15;;;;;;;6.07;2.80;;;24.90;51.00;;;;;;4874932;28;92113;-75
2022/09/23 06:59:41;;;;;;;6.40;2.88;;;26.00;50.40;;;;;;4874427;28;92189;-80
2022/09/23 07:02:08;;;;;;;7.85;2.53;;;26.40;48.40;;;;;;4877946;28;91887;-77
2022/09/23 07:04:34;;;;;;;3.13;2.55;;;27.30;46.40;;;;;;4880917;28;91422;-80
2022/09/23 07:06:59;;;;;;;3.55;2.92;;;27.40;46.70;;;;;;4877529;28;91178;-79
2022/09/23 07:09:26;;;;;;;4.43;3.00;;;28.40;44.50;;;;;;4880612;28;92454;-77
2022/09/23 07:11:52;;;;;;;5.20;3.33;;;28.60;44.80;;;;;;4882287;28;92158;-78
2022/09/23 07:14:18;;;;;;;4.55;3.20;;;28.70;44.50;;;;;;4876839;28;92500;-78
2022/09/23 07:16:43;;;;;;;5.50;3.17;;;28.90;43.80;;;;;;4875793;28;91526;-78
2022/09/23 07:19:11;;;;;;;5.25;3.38;;;29.80;42.40;;;;;;4884760;28;93702;-78
2022/09/23 07:21:36;;;;;;;6.43;3.33;;;29.70;42.70;;;;;;4887427;28;91848;-77
2022/09/23 07:24:03;;;;;;;4.55;3.85;;;29.40;42.80;;;;;;4886621;28;91575;-79
2022/09/23 07:26:32;;;;;;;4.43;3.35;;;29.70;42.00;;;;;;4896193;28;91473;-78
2022/09/23 07:29:03;;;;;;;6.57;4.30;;;30.30;41.40;;;;;;4890264;28;92323;-80
2022/09/23 07:31:31;;;;;;;6.13;4.18;;;31.50;41.00;;;;;;4889977;28;91199;-86
2022/09/23 07:33:59;;;;;;;3.95;3.08;;;32.50;38.90;;;;;;4889661;28;91763;-82
2022/09/23 07:36:26;;;;;;;;;;;32.60;39.20;;;;;;4888723;28;91998;-77
2022/09/23 07:38:58;;;;;;;7.43;4.22;;;33.00;37.50;;;;;;4889187;28;92528;-78
2022/09/23 07:41:27;;;;;;;6.38;3.75;;;32.90;37.80;;;;;;4884139;28;92199;-84
2022/09/23 07:43:57;;;;;;;5.22;4.05;;;33.40;37.30;;;;;;4870406;28;91740;-81
2022/09/23 07:46:26;;;;;;;5.97;4.15;;;34.30;37.00;;;;;;4871175;28;91535;-79
2022/09/23 07:48:52;;;;;;;4.90;4.40;;;34.40;36.00;;;;;;4890113;28;92329;-80
2022/09/23 07:51:31;;;;;;;5.00;4.25;;;34.40;36.20;;;;;;4886727;28;93969;-81
2022/09/23 07:53:57;;;;;;;4.22;3.80;;;33.60;37.00;;;;;;4894672;28;91685;-77
2022/09/23 07:56:25;;;;;;;5.55;4.78;;;34.00;36.50;;;;;;4889097;28;90711;-78
2022/09/23 07:59:01;;;;;;;7.72;4.50;;;34.00;36.30;;;;;;4889059;28;92294;-82
2022/09/23 08:01:28;;;;;;;5.43;4.70;;;34.70;35.70;;;;;;4895302;28;92091;-78
2022/09/23 08:03:59;;;;;;;6.68;4.47;;;35.70;34.70;;;;;;4892334;28;92306;-79
2022/09/23 08:06:25;;;;;;;6.00;4.47;;;35.10;35.80;;;;;;4887669;28;91488;-81
2022/09/23 08:08:51;;;;;;;4.45;4.05;;;34.60;35.90;;;;;;4891204;28;93306;-82
2022/09/23 08:11:17;;;;;;;5.85;4.03;;;35.30;35.70;;;;;;4892897;28;91876;-82
2022/09/23 08:13:42;;;;;;;7.80;4.55;;;35.20;35.70;;;;;;4891082;28;91347;-83
2022/09/23 08:16:09;;;;;;;5.55;4.72;;;34.50;35.30;;;;;;4893343;28;91338;-81
2022/09/23 08:18:34;;;;;;;5.47;4.97;;;35.20;35.60;;;;;;4883291;28;91728;-81
2022/09/23 08:21:01;;;;;;;5.53;3.47;;;35.80;34.20;;;;;;4894041;28;91843;-82
2022/09/23 08:23:26;;;;;;;7.93;5.20;;;35.90;34.10;;;;;;4891276;28;91254;-80
2022/09/23 08:25:58;;;;;;;4.20;3.80;;;37.00;33.50;;;;;;4885158;28;92088;-80
2022/09/23 08:28:24;;;;;;;4.72;4.32;;;37.30;33.40;;;;;;4887063;28;93233;-81
2022/09/23 08:30:50;;;;;;;6.30;4.97;;;38.50;32.20;;;;;;4886110;28;94524;-79
2022/09/23 08:33:16;;;;;;;3.50;2.95;;;39.50;32.20;;;;;;4889738;28;92056;-78
2022/09/23 08:35:42;;;;;;;6.57;5.97;;;39.80;31.60;;;;;;4887312;28;91636;-81
2022/09/23 08:38:08;;;;;;;5.72;5.10;;;39.40;30.70;;;;;;4884389;28;92433;-81
2022/09/23 08:40:38;;;;;;;7.10;5.50;;;39.60;30.70;;;;;;4893703;28;91897;-83
2022/09/23 08:43:14;;;;;;;8.68;6.30;;;39.40;31.70;;;;;;4892870;28;91606;-83
2022/09/23 08:45:42;;;;;;;3.78;3.15;;;39.30;30.90;;;;;;4900905;28;91420;-82
2022/09/23 08:48:14;;;;;;;7.13;6.43;;;38.70;31.20;;;;;;4896379;28;92227;-83
2022/09/23 08:50:50;;;;;;;5.03;4.60;;;39.50;31.80;;;;;;4896888;28;92300;-85
2022/09/23 08:53:26;;;;;;;8.40;5.65;;;39.80;30.80;;;;;;4903900;28;92258;-82
2022/09/23 08:55:54;;;;;;;6.45;5.70;;;40.70;30.70;;;;;;4901748;28;91704;-81
2022/09/23 08:59:04;;;;;;;6.63;5.63;;;40.50;30.80;;;;;;4909397;28;92392;-82
2022/09/23 09:01:45;;;;;;;6.70;5.78;;;39.70;30.40;;;;;;4898014;28;91263;-81
2022/09/23 09:04:15;;;;;;;5.65;5.10;;;39.20;30.60;;;;;;4896498;28;91289;-82
2022/09/23 09:06:52;;;;;;;5.85;4.68;;;38.60;31.20;;;;;;4903514;28;91831;-81
2022/09/23 09:09:22;;;;;;;5.80;4.22;;;39.00;31.20;;;;;;4908579;28;92287;-83
2022/09/23 09:11:51;;;;;;;5.35;4.85;;;39.70;30.30;;;;;;4891283;28;92100;-83
2022/09/23 09:14:42;;;;;;;4.97;4.47;;;40.40;29.60;;;;;;4888951;28;92307;-80
2022/09/23 09:17:38;;;;;;;4.63;4.07;;;39.00;31.20;;;;;;4897114;28;91805;-81
2022/09/23 09:20:27;;;;;;;13.15;3.92;;;38.70;30.60;;;;;;4856142;28;92695;-80
2022/09/23 09:22:59;;;;;;;7.88;2.50;;;38.10;29.10;;;;;;4896411;28;92887;-83
2022/09/23 09:25:44;;;;;;;6.03;2.90;;;37.10;31.30;;;;;;4897810;28;91227;-82
2022/09/23 09:28:29;;;;;;;8.40;4.60;;;35.20;31.00;;;;;;4896088;28;91406;-82
2022/09/23 09:30:58;;;;;;;8.00;4.28;;;36.10;31.50;;;;;;4887610;28;92385;-82
2022/09/23 09:33:56;;;;;;;4.15;3.33;;;33.70;32.70;;;;;;4891582;28;92219;-82
2022/09/23 09:36:41;;;;;;;4.45;3.67;;;30.90;34.70;;;;;;4892717;28;92432;-80
2022/09/23 09:39:11;;;;;;;4.90;2.92;;;29.80;36.60;;;;;;4896359;28;90541;-79
2022/09/23 09:41:43;;;;;;;5.50;2.72;;;29.70;37.50;;;;;;4894061;28;92116;-78
2022/09/23 09:44:25;;;;;;;6.82;2.88;;;30.00;37.30;;;;;;4903271;28;91697;-81
2022/09/23 09:47:13;;;;;;;6.53;2.90;;;29.60;36.90;;;;;;4909334;28;92937;-82
2022/09/23 09:49:48;;;;;;;4.38;2.95;;;29.70;38.10;;;;;;4910446;28;91887;-78
2022/09/23 09:52:22;;;;;;;;;;;31.20;34.80;;;;;;4905863;28;92345;-79
2022/09/23 09:54:49;;;;;;;4.78;2.78;;;30.60;36.60;;;;;;4904413;28;91407;-80
2022/09/23 09:57:26;;;;;;;4.78;3.30;;;30.00;36.50;;;;;;4892913;28;91735;-79
2022/09/23 09:59:52;;;;;;;5.40;2.58;;;27.40;40.60;;;;;;4893757;28;91732;-80
2022/09/23 10:02:23;;;;;;;7.32;1.45;;;27.10;40.10;;;;;;4895295;28;92315;-78
2022/09/23 10:04:57;;;;;;;4.95;2.17;;;25.50;42.80;;;;;;4893275;28;91154;-79
2022/09/23 10:07:29;;;;;;;6.43;2.35;;;24.60;43.80;;;;;;4913882;28;91283;-82
2022/09/23 10:09:55;;;;;;;4.00;1.73;;;25.40;42.20;;;;;;4894846;28;91941;-78
2022/09/23 10:12:23;;;;;;;5.35;1.30;;;23.30;47.00;;;;;;4899441;28;93228;-78
2022/09/23 10:14:54;;;;;;;5.57;3.50;;;23.60;46.40;;;;;;4887204;28;92413;-78
2022/09/23 10:17:35;;;;;;;4.45;2.20;;;24.40;48.20;;;;;;4890901;28;91326;-81
2022/09/23 10:20:07;;;;;;;5.07;3.03;;;25.20;48.90;;;;;;4887674;28;91799;-81
2022/09/23 10:22:39;;;;;;;6.55;3.47;;;25.70;49.10;;;;;;4886931;28;92286;-82
2022/09/23 10:25:15;;;;;;;8.13;3.40;;;25.80;49.30;;;;;;4892951;28;91959;-81
2022/09/23 10:27:42;;;;;;;5.85;3.03;;;25.70;49.20;;;;;;4887250;28;91976;-79
2022/09/23 10:30:14;;;;;;;8.13;3.67;;;25.00;50.30;;;;;;4887363;28;90649;-81
2022/09/23 10:32:43;;;;;;;4.63;3.75;;;23.80;53.00;;;;;;4888515;28;92812;-81
2022/09/23 10:35:12;;;;;;;6.50;3.80;;;23.70;53.60;;;;;;4886160;28;92353;-79
2022/09/23 10:37:47;;;;;;;6.60;4.15;;;23.50;55.60;;;;;;4885087;28;92312;-81
2022/09/23 10:46:37;;;;;;;3.85;3.05;;;23.20;55.60;;;;;;4891944;28;91845;-78
2022/09/23 10:49:15;;;;;;;5.38;3.20;;;23.50;53.40;;;;;;4886720;28;91757;-78
2022/09/23 10:51:58;;;;;;;5.05;3.22;;;23.30;54.70;;;;;;4893143;28;91912;-82
2022/09/23 10:54:48;;;;;;;4.50;3.03;;;23.40;55.00;;;;;;4885061;28;92891;-80
2022/09/23 10:57:40;;;;;;;4.80;3.47;;;23.50;53.40;;;;;;4892261;28;91277;-84
2022/09/23 11:00:27;;;;;;;3.78;2.88;;;23.40;54.40;;;;;;4893007;28;91822;-79
2022/09/23 11:03:08;;;;;;;6.70;3.80;;;23.40;53.30;;;;;;4888905;28;91742;-81
2022/09/23 11:06:11;;;;;;;4.00;2.72;;;23.50;52.00;;;;;;4890103;28;92656;-81
2022/09/23 11:09:02;;;;;;;7.53;3.08;;;23.20;53.40;;;;;;4889231;28;93350;-78
2022/09/23 11:11:37;;;;;;;7.65;3.40;;;23.30;52.80;;;;;;4884201;28;92790;-80
2022/09/23 11:14:39;;;;;;;5.70;2.95;;;23.20;52.90;;;;;;4882745;28;91585;-80
2022/09/23 11:17:43;;;;;;;6.53;3.05;;;23.00;53.80;;;;;;4882334;28;92810;-76
2022/09/23 11:20:40;;;;;;;6.55;2.90;;;23.10;54.20;;;;;;4884471;28;92124;-78
2022/09/23 11:23:33;;;;;;;6.22;3.10;;;22.90;53.40;;;;;;4889199;28;91603;-77
2022/09/23 11:26:30;;;;;;;7.30;3.22;;;22.00;56.00;;;;;;4892271;28;91989;-77
2022/09/23 11:29:14;;;;;;;5.35;2.90;;;22.20;57.00;;;;;;4870980;28;93392;-76
2022/09/23 11:32:27;;;;;;;9.38;2.85;;;22.70;55.00;;;;;;4884530;28;92452;-78
2022/09/23 11:35:12;;;;;;;5.60;3.10;;;22.80;56.30;;;;;;4879884;28;92368;-79
2022/09/23 11:37:43;;;;;;;7.38;3.50;;;22.80;56.70;;;;;;4889860;28;91388;-82
2022/09/23 11:40:28;;;;;;;8.93;3.28;;;22.90;56.20;;;;;;4881043;28;91710;-79
2022/09/23 11:42:54;;;;;;;8.00;3.22;;;23.20;54.60;;;;;;4879505;28;92392;-77
2022/09/23 11:46:01;;;;;;;6.07;4.05;;;23.20;55.00;;;;;;4883661;28;92131;-80
2022/09/23 11:48:36;;;;;;;9.13;3.10;;;23.20;53.70;;;;;;4883874;28;92131;-79
2022/09/23 11:51:10;;;;;;;7.00;3.17;;;22.90;54.40;;;;;;4879870;28;92687;-81
2022/09/23 11:53:52;;;;;;;9.15;3.25;;;22.80;55.70;;;;;;4888236;28;92503;-80
2022/09/23 11:56:29;;;;;;;6.70;3.25;;;22.80;57.80;;;;;;4864540;28;91355;-80
2022/09/23 11:59:23;;;;;;;4.10;2.72;;;22.10;57.80;;;;;;4879542;28;91841;-80
2022/09/23 12:01:54;;;;;;;5.85;3.33;;;22.40;59.30;;;;;;4885732;28;94382;-81
2022/09/23 12:04:39;;;;;;;8.75;3.25;;;22.30;59.40;;;;;;4891043;28;91987;-80
2022/09/23 12:07:19;;;;;;;6.05;3.20;;;22.30;56.40;;;;;;4890163;28;92011;-84
2022/09/23 12:10:01;;;;;;;7.50;3.85;;;22.40;56.20;;;;;;4886747;28;91496;-76
2022/09/23 12:12:51;;;;;;;6.75;2.35;;;22.20;58.60;;;;;;4891322;28;91722;-79
2022/09/23 12:15:23;;;;;;;5.32;2.63;;;22.10;58.70;;;;;;4888137;28;91641;-77
2022/09/23 12:17:58;;;;;;;5.00;2.60;;;22.10;55.60;;;;;;4888375;28;91634;-80
2022/09/23 12:20:50;;;;;;;6.25;3.13;;;22.10;54.00;;;;;;4889759;28;91086;-80
2022/09/23 12:23:31;;;;;;;7.82;2.65;;;21.80;56.10;;;;;;4887235;28;91770;-77
2022/09/23 12:26:01;;;;;;;5.05;2.63;;;21.80;55.80;;;;;;4886054;28;91901;-76
2022/09/23 12:28:39;;;;;;;3.75;2.03;;;21.70;55.10;;;;;;4885768;28;93773;-76
2022/09/23 12:31:10;;;;;;;5.85;3.50;;;21.70;54.10;;;;;;4889734;28;91392;-77
2022/09/23 12:33:37;;;;;;;6.57;2.50;;;21.60;55.20;;;;;;4886576;28;92081;-80
2022/09/23 12:36:07;;;;;;;6.25;3.30;;;21.70;54.80;;;;;;4892727;28;92596;-79
2022/09/23 12:38:37;;;;;;;5.30;2.42;;;21.60;54.00;;;;;;4898497;28;91332;-76
2022/09/23 12:41:22;;;;;;;4.25;2.38;;;21.60;54.60;;;;;;4892718;28;92116;-79
2022/09/23 12:43:56;;;;;;;6.30;2.75;;;21.20;57.20;;;;;;4887633;28;94168;-80
2022/09/23 12:46:24;;;;;;;3.40;1.90;;;21.40;58.50;;;;;;4871676;28;93324;-83
2022/09/23 12:48:56;;;;;;;3.83;2.67;;;21.10;58.10;;;;;;4867980;28;91515;-77
2022/09/23 12:51:22;;;;;;;3.97;1.80;;;21.20;56.40;;;;;;4868623;28;92080;-81
2022/09/23 12:53:53;;;;;;;5.35;2.95;;;21.10;55.20;;;;;;4869360;28;92605;-82
2022/09/23 12:56:37;;;;;;;4.32;2.28;;;20.90;56.20;;;;;;4870877;28;93769;-82
2022/09/23 12:59:15;;;;;;;4.60;1.85;;;20.90;56.30;;;;;;4866889;28;91370;-80
2022/09/23 13:01:42;;;;;;;5.13;2.50;;;20.60;57.00;;;;;;4875074;28;91368;-81
2022/09/23 13:07:22;;;;;;;3.33;2.00;;;20.50;59.10;;;;;;4893175;28;91679;-77
2022/09/23 13:09:51;;;;;;;4.00;1.58;;;20.70;56.50;;;;;;4887008;28;91931;-80
2022/09/23 13:12:22;;;;;;;4.75;2.15;;;20.70;55.70;;;;;;4887538;28;90594;-80
2022/09/23 13:14:49;;;;;;;5.68;2.95;;;20.50;57.70;;;;;;4863020;28;93828;-82
2022/09/23 13:17:25;;;;;;;6.10;3.05;;;20.60;57.90;;;;;;4888069;28;91968;-79
2022/09/23 13:20:17;;;;;;;4.97;2.53;;;20.50;59.90;;;;;;4885672;28;92411;-79
2022/09/23 13:22:52;;;;;;;5.07;2.17;;;20.50;59.70;;;;;;4883800;28;91795;-79
2022/09/23 13:25:21;;;;;;;6.05;2.97;;;20.40;59.50;;;;;;4884396;28;92457;-78
2022/09/23 13:27:51;;;;;;;6.40;2.35;;;20.50;61.60;;;;;;4892651;28;91345;-79
2022/09/23 13:30:20;;;;;;;7.20;2.75;;;20.50;61.00;;;;;;4893684;28;91531;-78
2022/09/23 13:33:13;;;;;;;7.05;3.22;;;20.40;60.50;;;;;;4881449;28;91500;-81
2022/09/23 13:35:49;;;;;;;8.00;3.67;;;20.40;59.50;;;;;;4887197;28;92547;-78
2022/09/23 13:38:28;;;;;;;7.03;2.95;;;20.20;61.70;;;;;;4892089;28;92626;-77
2022/09/23 13:41:00;;;;;;;5.57;2.55;;;20.10;62.00;;;;;;4889174;28;91788;-78
2022/09/23 13:43:38;;;;;;;7.32;2.80;;;20.30;60.50;;;;;;4895586;28;91279;-79
2022/09/23 13:46:12;;;;;;;6.25;2.75;;;20.30;59.50;;;;;;4892665;28;92876;-77
2022/09/23 13:48:40;;;;;;;5.60;2.67;;;20.30;58.90;;;;;;4871856;28;92905;-77
2022/09/23 13:51:09;;;;;;;5.53;3.10;;;20.10;59.80;;;;;;4892020;28;91776;-77
2022/09/23 13:53:35;;;;;;;7.85;2.95;;;20.20;58.70;;;;;;4887261;28;91892;-78
2022/09/23 13:56:13;;;;;;;5.50;2.45;;;20.20;59.50;;;;;;4894471;28;92036;-77
2022/09/23 13:58:39;;;;;;;4.55;2.90;;;20.30;58.60;;;;;;4892535;28;91684;-83
2022/09/23 14:01:22;;;;;;;5.53;2.97;;;20.30;58.00;;;;;;4889622;28;91248;-81
2022/09/23 14:03:47;;;;;;;7.45;3.20;;;20.30;58.70;;;;;;4886445;28;90910;-78
2022/09/23 14:06:15;;;;;;;7.40;3.15;;;20.30;60.50;;;;;;4881064;28;92210;-80
2022/09/23 14:08:46;;;;;;;5.75;2.67;;;20.10;60.50;;;;;;4881921;28;92062;-80
2022/09/23 14:11:21;;;;;;;8.63;3.58;;;20.00;62.00;;;;;;4875754;28;93016;-77
2022/09/23 14:13:53;;;;;;;5.15;2.95;;;19.90;59.60;;;;;;4881017;28;91798;-78
2022/09/23 14:16:20;;;;;;;4.65;2.70;;;19.90;60.20;;;;;;4874605;28;92259;-77
2022/09/23 14:18:48;;;;;;;4.78;2.65;;;20.00;60.60;;;;;;4879031;28;92497;-80
2022/09/23 14:21:47;;;;;;;11.15;3.38;;;20.00;60.80;;;;;;4865265;28;91315;-77
2022/09/23 14:24:13;;;;;;;5.40;3.22;;;20.20;61.80;;;;;;4870039;28;91338;-79
2022/09/23 14:26:42;;;;;;;8.10;3.15;;;20.10;59.90;;;;;;4886200;28;92296;-80
2022/09/23 14:29:22;;;;;;;8.02;3.90;;;20.20;60.30;;;;;;4886760;28;91910;-79
2022/09/23 14:31:55;;;;;;;10.98;4.32;;;20.20;59.80;;;;;;4893894;28;91881;-80
2022/09/23 14:34:59;;;;;;;11.98;4.57;;;20.20;60.20;;;;;;4882876;28;91961;-78
2022/09/23 14:40:42;;;;;;;8.55;4.68;;;20.20;59.90;;;;;;4883198;28;92147;-78
2022/09/23 14:43:22;;;;;;;13.13;4.60;;;20.10;61.60;;;;;;4879719;28;91995;-78
2022/09/23 14:45:54;;;;;;;9.57;3.47;;;20.00;62.20;;;;;;4872097;28;91668;-78
2022/09/23 14:48:27;;;;;;;7.45;3.35;;;20.00;62.80;;;;;;4892047;28;92486;-78
2022/09/23 14:51:01;;;;;;;4.43;2.97;;;19.90;62.70;;;;;;4882187;28;91964;-80
2022/09/23 14:53:33;;;;;;;7.60;3.70;;;19.90;61.10;;;;;;4882818;28;93475;-78
2022/09/23 14:56:05;;;;;;;6.60;3.00;;;19.90;60.90;;;;;;4886888;28;90668;-78
2022/09/23 14:58:45;;;;;;;7.80;3.83;;;19.90;62.80;;;;;;4875309;28;92669;-78
2022/09/23 15:01:29;;;;;;;7.70;3.45;;;19.80;61.90;;;;;;4885465;28;91813;-78
2022/09/23 15:04:09;;;;;;;10.07;3.75;;;19.80;61.10;;;;;;4881538;28;92745;-80
2022/09/23 15:06:41;;;;;;;5.95;2.95;;;19.80;62.70;;;;;;4876538;28;91973;-77
2022/09/23 15:09:07;;;;;;;6.43;3.38;;;19.70;62.90;;;;;;4888169;28;91864;-77
2022/09/23 15:11:34;;;;;;;7.30;3.80;;;19.50;64.90;;;;;;4871716;28;91972;-78
2022/09/23 15:14:04;;;;;;;6.22;2.63;;;19.60;63.60;;;;;;4883067;28;91761;-78
2022/09/23 15:16:30;;;;;;;7.40;4.05;;;19.70;63.20;;;;;;4885000;28;91386;-79
2022/09/23 15:18:59;;;;;;;5.50;3.17;;;19.70;64.20;;;;;;4885972;28;92191;-77
2022/09/23 15:21:39;;;;;;;6.43;4.03;;;19.80;63.50;;;;;;4885931;28;91172;-78
2022/09/23 15:24:34;;;;;;;5.85;3.17;;;19.90;63.10;;;;;;4875463;28;91616;-77
2022/09/23 15:26:59;;;;;;;6.50;3.63;;;20.00;64.20;;;;;;4882521;28;91850;-77
2022/09/23 15:29:26;;;;;;;8.82;3.47;;;20.00;61.80;;;;;;4875291;28;93259;-78
2022/09/23 15:31:52;;;;;;;5.80;3.13;;;20.00;62.40;;;;;;4873282;28;92608;-79
2022/09/23 15:34:20;;;;;;;11.55;3.83;;;20.00;62.20;;;;;;4897604;28;91875;-77
2022/09/23 15:36:47;;;;;;;6.32;3.22;;;20.00;63.60;;;;;;4882670;28;91282;-77
2022/09/23 15:39:13;;;;;;;9.45;3.05;;;20.00;62.40;;;;;;4880950;28;92343;-78
2022/09/23 15:41:42;;;;;;;7.55;3.25;;;20.10;61.90;;;;;;4882574;28;91393;-78
2022/09/23 15:44:12;;;;;;;5.60;2.30;;;20.20;61.60;;;;;;4881524;28;91903;-77
2022/09/23 15:46:43;;;;;;;5.68;3.17;;;20.20;61.60;;;;;;4882956;28;90778;-79
2022/09/23 15:49:38;;;;;;;8.85;3.28;;;20.20;62.50;;;;;;4899953;28;92300;-77
2022/09/23 15:52:04;;;;;;;7.13;3.30;;;20.10;63.40;;;;;;4892665;28;91944;-78
2022/09/23 15:54:33;;;;;;;5.82;3.63;;;20.10;64.00;;;;;;4903162;28;92558;-77
2022/09/23 15:57:02;;;;;;;5.90;3.03;;;20.00;63.50;;;;;;4901771;28;91508;-77
2022/09/23 15:59:29;;;;;;;7.95;3.72;;;19.90;62.90;;;;;;4896577;28;92387;-78
2022/09/23 16:01:57;;;;;;;5.07;3.05;;;19.90;62.70;;;;;;4893149;28;91306;-80
2022/09/23 16:04:25;;;;;;;8.35;2.72;;;19.90;62.80;;;;;;4891341;28;91289;-78
2022/09/23 16:06:51;;;;;;;8.98;3.75;;;19.80;63.40;;;;;;4885154;28;93227;-79
2022/09/23 16:09:17;;;;;;;5.65;3.25;;;19.70;64.40;;;;;;4887184;28;91922;-79
2022/09/23 16:11:45;;;;;;;6.03;3.05;;;19.60;64.50;;;;;;4890047;28;91937;-79
2022/09/23 16:14:15;;;;;;;7.68;3.33;;;19.60;64.80;;;;;;4910461;28;91293;-77
2022/09/23 16:16:43;;;;;;;4.78;3.00;;;19.50;65.80;;;;;;4892335;28;91318;-77